sensor_id;sensor_type;location;lat;lon;timestamp;P1;durP1;ratioP1;P2;durP2;ratioP2
59336;SDS011;45115;52.002;4.686;2023-04-30T00:01:24;20.75;;;10.70;;
59336;SDS011;45115;52.002;4.686;2023-04-30T00:03:51;21.40;;;10.18;;
59336;SDS011;45115;52.002;4.686;2023-04-30T00:06:18;21.63;;;10.48;;
59336;SDS011;45115;52.002;4.686;2023-04-30T00:08:44;20.50;;;10.73;;
59336;SDS011;45115;52.002;4.686;2023-04-30T00:11:11;19.60;;;9.75;;
59336;SDS011;45115;52.002;4.686;2023-04-30T00:13:39;20.75;;;10.75;;
59336;SDS011;45115;52.002;4.686;2023-04-30T00:16:07;25.00;;;11.20;;
59336;SDS011;45115;52.002;4.686;2023-04-30T00:18:33;21.75;;;10.65;;
59336;SDS011;45115;52.002;4.686;2023-04-30T00:21:00;23.05;;;10.75;;
59336;SDS011;45115;52.002;4.686;2023-04-30T00:23:26;27.98;;;11.63;;
59336;SDS011;45115;52.002;4.686;2023-04-30T00:25:53;22.85;;;11.15;;
59336;SDS011;45115;52.002;4.686;2023-04-30T00:28:20;22.65;;;10.80;;
59336;SDS011;45115;52.002;4.686;2023-04-30T00:30:48;23.42;;;11.52;;
59336;SDS011;45115;52.002;4.686;2023-04-30T00:33:15;21.08;;;11.13;;
59336;SDS011;45115;52.002;4.686;2023-04-30T00:35:41;21.20;;;10.52;;
59336;SDS011;45115;52.002;4.686;2023-04-30T00:38:09;23.17;;;11.25;;
59336;SDS011;45115;52.002;4.686;2023-04-30T00:40:37;22.63;;;11.35;;
59336;SDS011;45115;52.002;4.686;2023-04-30T00:43:05;21.52;;;11.00;;
59336;SDS011;45115;52.002;4.686;2023-04-30T00:45:32;23.05;;;11.75;;
59336;SDS011;45115;52.002;4.686;2023-04-30T00:48:00;21.58;;;11.50;;
59336;SDS011;45115;52.002;4.686;2023-04-30T00:50:27;20.63;;;10.50;;
59336;SDS011;45115;52.002;4.686;2023-04-30T00:52:54;22.33;;;10.18;;
59336;SDS011;45115;52.002;4.686;2023-04-30T00:55:21;22.00;;;10.95;;
59336;SDS011;45115;52.002;4.686;2023-04-30T00:57:48;21.02;;;10.15;;
59336;SDS011;45115;52.002;4.686;2023-04-30T01:00:15;21.90;;;11.13;;
59336;SDS011;45115;52.002;4.686;2023-04-30T01:02:44;23.63;;;11.40;;
59336;SDS011;45115;52.002;4.686;2023-04-30T01:05:12;23.52;;;11.68;;
59336;SDS011;45115;52.002;4.686;2023-04-30T01:07:38;20.98;;;11.68;;
59336;SDS011;45115;52.002;4.686;2023-04-30T01:10:09;24.67;;;12.48;;
59336;SDS011;45115;52.002;4.686;2023-04-30T01:12:36;22.92;;;11.52;;
59336;SDS011;45115;52.002;4.686;2023-04-30T01:15:10;23.70;;;11.98;;
59336;SDS011;45115;52.002;4.686;2023-04-30T01:17:45;23.17;;;11.57;;
59336;SDS011;45115;52.002;4.686;2023-04-30T01:20:21;25.10;;;12.82;;
59336;SDS011;45115;52.002;4.686;2023-04-30T01:22:51;21.53;;;11.20;;
59336;SDS011;45115;52.002;4.686;2023-04-30T01:25:32;25.45;;;11.50;;
59336;SDS011;45115;52.002;4.686;2023-04-30T01:28:10;24.17;;;11.50;;
59336;SDS011;45115;52.002;4.686;2023-04-30T01:30:41;26.48;;;12.25;;
59336;SDS011;45115;52.002;4.686;2023-04-30T01:33:09;24.48;;;11.82;;
59336;SDS011;45115;52.002;4.686;2023-04-30T01:35:40;22.67;;;12.10;;
59336;SDS011;45115;52.002;4.686;2023-04-30T01:38:20;26.15;;;13.32;;
59336;SDS011;45115;52.002;4.686;2023-04-30T01:40:54;24.98;;;12.25;;
59336;SDS011;45115;52.002;4.686;2023-04-30T01:46:07;26.10;;;12.10;;
59336;SDS011;45115;52.002;4.686;2023-04-30T01:48:42;25.85;;;12.35;;
59336;SDS011;45115;52.002;4.686;2023-04-30T01:51:14;24.98;;;12.70;;
59336;SDS011;45115;52.002;4.686;2023-04-30T01:53:44;28.65;;;14.82;;
59336;SDS011;45115;52.002;4.686;2023-04-30T01:56:13;28.00;;;14.65;;
59336;SDS011;45115;52.002;4.686;2023-04-30T01:58:48;27.45;;;14.85;;
59336;SDS011;45115;52.002;4.686;2023-04-30T02:01:25;29.33;;;13.52;;
59336;SDS011;45115;52.002;4.686;2023-04-30T02:03:53;32.67;;;14.93;;
59336;SDS011;45115;52.002;4.686;2023-04-30T02:06:19;27.38;;;13.35;;
59336;SDS011;45115;52.002;4.686;2023-04-30T02:08:47;27.52;;;12.88;;
59336;SDS011;45115;52.002;4.686;2023-04-30T02:11:14;24.05;;;12.75;;
59336;SDS011;45115;52.002;4.686;2023-04-30T02:13:41;22.70;;;12.45;;
59336;SDS011;45115;52.002;4.686;2023-04-30T02:16:09;26.00;;;14.60;;
59336;SDS011;45115;52.002;4.686;2023-04-30T02:18:35;26.35;;;13.32;;
59336;SDS011;45115;52.002;4.686;2023-04-30T02:21:02;26.48;;;13.95;;
59336;SDS011;45115;52.002;4.686;2023-04-30T02:23:29;28.90;;;14.27;;
59336;SDS011;45115;52.002;4.686;2023-04-30T02:25:56;26.17;;;13.20;;
59336;SDS011;45115;52.002;4.686;2023-04-30T02:28:23;30.48;;;14.07;;
59336;SDS011;45115;52.002;4.686;2023-04-30T02:30:49;25.15;;;14.00;;
59336;SDS011;45115;52.002;4.686;2023-04-30T02:33:17;26.08;;;13.55;;
59336;SDS011;45115;52.002;4.686;2023-04-30T02:35:44;26.02;;;13.15;;
59336;SDS011;45115;52.002;4.686;2023-04-30T02:38:11;34.90;;;13.40;;
59336;SDS011;45115;52.002;4.686;2023-04-30T02:40:37;27.50;;;13.80;;
59336;SDS011;45115;52.002;4.686;2023-04-30T02:43:06;25.48;;;12.55;;
59336;SDS011;45115;52.002;4.686;2023-04-30T02:45:32;25.55;;;13.63;;
59336;SDS011;45115;52.002;4.686;2023-04-30T02:47:59;22.48;;;12.70;;
59336;SDS011;45115;52.002;4.686;2023-04-30T02:50:27;24.25;;;12.30;;
59336;SDS011;45115;52.002;4.686;2023-04-30T02:52:54;25.42;;;13.27;;
59336;SDS011;45115;52.002;4.686;2023-04-30T02:55:21;29.33;;;13.57;;
59336;SDS011;45115;52.002;4.686;2023-04-30T02:57:47;25.67;;;12.63;;
59336;SDS011;45115;52.002;4.686;2023-04-30T03:00:14;23.75;;;12.38;;
59336;SDS011;45115;52.002;4.686;2023-04-30T03:02:41;26.38;;;13.32;;
59336;SDS011;45115;52.002;4.686;2023-04-30T03:05:08;26.50;;;13.10;;
59336;SDS011;45115;52.002;4.686;2023-04-30T03:07:37;30.75;;;13.32;;
59336;SDS011;45115;52.002;4.686;2023-04-30T03:10:04;21.83;;;11.90;;
59336;SDS011;45115;52.002;4.686;2023-04-30T03:12:32;27.25;;;13.38;;
59336;SDS011;45115;52.002;4.686;2023-04-30T03:14:59;24.08;;;11.93;;
59336;SDS011;45115;52.002;4.686;2023-04-30T03:17:26;23.23;;;12.50;;
59336;SDS011;45115;52.002;4.686;2023-04-30T03:19:52;28.33;;;14.15;;
59336;SDS011;45115;52.002;4.686;2023-04-30T03:22:19;25.15;;;12.35;;
59336;SDS011;45115;52.002;4.686;2023-04-30T03:24:49;27.67;;;13.10;;
59336;SDS011;45115;52.002;4.686;2023-04-30T03:27:15;25.27;;;12.43;;
59336;SDS011;45115;52.002;4.686;2023-04-30T03:29:42;23.88;;;12.57;;
59336;SDS011;45115;52.002;4.686;2023-04-30T03:32:09;23.73;;;11.95;;
59336;SDS011;45115;52.002;4.686;2023-04-30T03:34:35;25.02;;;13.10;;
59336;SDS011;45115;52.002;4.686;2023-04-30T03:37:02;26.02;;;12.25;;
59336;SDS011;45115;52.002;4.686;2023-04-30T03:39:28;22.25;;;11.93;;
59336;SDS011;45115;52.002;4.686;2023-04-30T03:41:56;22.75;;;12.48;;
59336;SDS011;45115;52.002;4.686;2023-04-30T03:44:23;23.50;;;12.32;;
59336;SDS011;45115;52.002;4.686;2023-04-30T03:46:50;25.83;;;13.43;;
59336;SDS011;45115;52.002;4.686;2023-04-30T03:49:16;22.33;;;11.90;;
59336;SDS011;45115;52.002;4.686;2023-04-30T03:51:43;23.20;;;11.35;;
59336;SDS011;45115;52.002;4.686;2023-04-30T03:54:10;25.58;;;12.25;;
59336;SDS011;45115;52.002;4.686;2023-04-30T03:56:37;26.75;;;12.25;;
59336;SDS011;45115;52.002;4.686;2023-04-30T03:59:06;23.38;;;12.35;;
59336;SDS011;45115;52.002;4.686;2023-04-30T04:01:33;23.42;;;11.80;;
59336;SDS011;45115;52.002;4.686;2023-04-30T04:04:00;25.05;;;12.48;;
59336;SDS011;45115;52.002;4.686;2023-04-30T04:06:27;23.58;;;12.27;;
59336;SDS011;45115;52.002;4.686;2023-04-30T04:08:55;23.80;;;12.18;;
59336;SDS011;45115;52.002;4.686;2023-04-30T04:11:21;26.40;;;12.82;;
59336;SDS011;45115;52.002;4.686;2023-04-30T04:13:48;23.33;;;12.38;;
59336;SDS011;45115;52.002;4.686;2023-04-30T04:16:16;25.95;;;12.73;;
59336;SDS011;45115;52.002;4.686;2023-04-30T04:18:43;24.95;;;13.25;;
59336;SDS011;45115;52.002;4.686;2023-04-30T04:21:10;26.00;;;13.63;;
59336;SDS011;45115;52.002;4.686;2023-04-30T04:23:37;24.15;;;12.80;;
59336;SDS011;45115;52.002;4.686;2023-04-30T04:26:03;27.67;;;13.63;;
59336;SDS011;45115;52.002;4.686;2023-04-30T04:28:30;26.05;;;13.55;;
59336;SDS011;45115;52.002;4.686;2023-04-30T04:30:57;26.40;;;13.35;;
59336;SDS011;45115;52.002;4.686;2023-04-30T04:33:25;26.13;;;13.35;;
59336;SDS011;45115;52.002;4.686;2023-04-30T04:35:51;27.20;;;14.70;;
59336;SDS011;45115;52.002;4.686;2023-04-30T04:38:18;28.05;;;14.48;;
59336;SDS011;45115;52.002;4.686;2023-04-30T04:40:49;26.58;;;13.27;;
59336;SDS011;45115;52.002;4.686;2023-04-30T04:43:17;26.50;;;13.68;;
59336;SDS011;45115;52.002;4.686;2023-04-30T04:45:44;25.42;;;13.02;;
59336;SDS011;45115;52.002;4.686;2023-04-30T04:48:11;23.50;;;12.82;;
59336;SDS011;45115;52.002;4.686;2023-04-30T04:50:39;25.35;;;13.68;;
59336;SDS011;45115;52.002;4.686;2023-04-30T04:53:05;26.00;;;13.90;;
59336;SDS011;45115;52.002;4.686;2023-04-30T04:55:33;22.55;;;11.93;;
59336;SDS011;45115;52.002;4.686;2023-04-30T04:58:00;26.02;;;13.07;;
59336;SDS011;45115;52.002;4.686;2023-04-30T05:00:26;22.67;;;12.10;;
59336;SDS011;45115;52.002;4.686;2023-04-30T05:02:54;22.80;;;11.35;;
59336;SDS011;45115;52.002;4.686;2023-04-30T05:05:20;21.10;;;11.43;;
59336;SDS011;45115;52.002;4.686;2023-04-30T05:07:49;23.25;;;11.70;;
59336;SDS011;45115;52.002;4.686;2023-04-30T05:10:19;21.98;;;11.05;;
59336;SDS011;45115;52.002;4.686;2023-04-30T05:12:46;22.98;;;11.93;;
59336;SDS011;45115;52.002;4.686;2023-04-30T05:15:12;21.58;;;10.93;;
59336;SDS011;45115;52.002;4.686;2023-04-30T05:17:39;20.58;;;11.05;;
59336;SDS011;45115;52.002;4.686;2023-04-30T05:20:06;23.95;;;12.43;;
59336;SDS011;45115;52.002;4.686;2023-04-30T05:22:34;20.45;;;10.25;;
59336;SDS011;45115;52.002;4.686;2023-04-30T05:25:02;21.40;;;10.10;;
59336;SDS011;45115;52.002;4.686;2023-04-30T05:27:28;21.60;;;10.45;;
59336;SDS011;45115;52.002;4.686;2023-04-30T05:29:55;17.88;;;8.80;;
59336;SDS011;45115;52.002;4.686;2023-04-30T05:32:22;18.40;;;9.02;;
59336;SDS011;45115;52.002;4.686;2023-04-30T05:34:48;17.58;;;9.05;;
59336;SDS011;45115;52.002;4.686;2023-04-30T05:37:15;16.75;;;8.63;;
59336;SDS011;45115;52.002;4.686;2023-04-30T05:39:43;18.42;;;9.25;;
59336;SDS011;45115;52.002;4.686;2023-04-30T05:42:11;18.42;;;8.30;;
59336;SDS011;45115;52.002;4.686;2023-04-30T05:44:38;16.02;;;8.48;;
59336;SDS011;45115;52.002;4.686;2023-04-30T05:47:05;17.40;;;8.02;;
59336;SDS011;45115;52.002;4.686;2023-04-30T05:49:32;18.10;;;8.50;;
59336;SDS011;45115;52.002;4.686;2023-04-30T05:51:58;15.68;;;7.90;;
59336;SDS011;45115;52.002;4.686;2023-04-30T05:54:25;15.35;;;7.57;;
59336;SDS011;45115;52.002;4.686;2023-04-30T05:56:52;15.50;;;7.80;;
59336;SDS011;45115;52.002;4.686;2023-04-30T05:59:20;17.05;;;8.70;;
59336;SDS011;45115;52.002;4.686;2023-04-30T06:01:47;14.13;;;6.90;;
59336;SDS011;45115;52.002;4.686;2023-04-30T06:04:13;18.30;;;9.18;;
59336;SDS011;45115;52.002;4.686;2023-04-30T06:06:40;14.55;;;7.13;;
59336;SDS011;45115;52.002;4.686;2023-04-30T06:09:07;14.38;;;7.38;;
59336;SDS011;45115;52.002;4.686;2023-04-30T06:11:34;17.05;;;7.85;;
59336;SDS011;45115;52.002;4.686;2023-04-30T06:14:02;16.30;;;7.45;;
59336;SDS011;45115;52.002;4.686;2023-04-30T06:16:30;14.98;;;7.22;;
59336;SDS011;45115;52.002;4.686;2023-04-30T06:18:57;13.98;;;7.07;;
59336;SDS011;45115;52.002;4.686;2023-04-30T06:21:24;14.25;;;7.25;;
59336;SDS011;45115;52.002;4.686;2023-04-30T06:23:50;15.98;;;8.18;;
59336;SDS011;45115;52.002;4.686;2023-04-30T06:26:17;12.25;;;6.93;;
59336;SDS011;45115;52.002;4.686;2023-04-30T06:28:44;13.55;;;7.18;;
59336;SDS011;45115;52.002;4.686;2023-04-30T06:31:11;11.73;;;6.38;;
59336;SDS011;45115;52.002;4.686;2023-04-30T06:33:39;12.95;;;6.63;;
59336;SDS011;45115;52.002;4.686;2023-04-30T06:36:06;13.60;;;6.68;;
59336;SDS011;45115;52.002;4.686;2023-04-30T06:38:32;13.52;;;6.63;;
59336;SDS011;45115;52.002;4.686;2023-04-30T06:40:59;14.32;;;6.05;;
59336;SDS011;45115;52.002;4.686;2023-04-30T06:43:26;12.40;;;6.47;;
59336;SDS011;45115;52.002;4.686;2023-04-30T06:45:52;12.75;;;6.75;;
59336;SDS011;45115;52.002;4.686;2023-04-30T06:48:19;12.98;;;6.53;;
59336;SDS011;45115;52.002;4.686;2023-04-30T06:50:47;12.52;;;5.88;;
59336;SDS011;45115;52.002;4.686;2023-04-30T06:53:14;10.65;;;6.20;;
59336;SDS011;45115;52.002;4.686;2023-04-30T06:55:41;10.40;;;6.35;;
59336;SDS011;45115;52.002;4.686;2023-04-30T06:58:07;11.65;;;6.00;;
59336;SDS011;45115;52.002;4.686;2023-04-30T07:00:36;11.50;;;6.20;;
59336;SDS011;45115;52.002;4.686;2023-04-30T07:03:08;15.02;;;6.07;;
59336;SDS011;45115;52.002;4.686;2023-04-30T07:05:35;11.40;;;6.30;;
59336;SDS011;45115;52.002;4.686;2023-04-30T07:08:03;12.82;;;6.32;;
59336;SDS011;45115;52.002;4.686;2023-04-30T07:10:30;11.27;;;5.95;;
59336;SDS011;45115;52.002;4.686;2023-04-30T07:12:57;10.90;;;6.20;;
59336;SDS011;45115;52.002;4.686;2023-04-30T07:15:24;11.95;;;6.22;;
59336;SDS011;45115;52.002;4.686;2023-04-30T07:17:51;11.38;;;6.85;;
59336;SDS011;45115;52.002;4.686;2023-04-30T07:20:18;10.80;;;6.45;;
59336;SDS011;45115;52.002;4.686;2023-04-30T07:22:44;10.63;;;5.90;;
59336;SDS011;45115;52.002;4.686;2023-04-30T07:25:12;12.55;;;6.15;;
59336;SDS011;45115;52.002;4.686;2023-04-30T07:27:40;12.30;;;6.38;;
59336;SDS011;45115;52.002;4.686;2023-04-30T07:30:07;12.98;;;6.50;;
59336;SDS011;45115;52.002;4.686;2023-04-30T07:32:35;10.23;;;6.10;;
59336;SDS011;45115;52.002;4.686;2023-04-30T07:35:02;12.32;;;6.38;;
59336;SDS011;45115;52.002;4.686;2023-04-30T07:37:29;12.00;;;6.28;;
59336;SDS011;45115;52.002;4.686;2023-04-30T07:39:55;11.02;;;6.20;;
59336;SDS011;45115;52.002;4.686;2023-04-30T07:42:23;9.73;;;6.10;;
59336;SDS011;45115;52.002;4.686;2023-04-30T07:44:50;11.73;;;6.43;;
59336;SDS011;45115;52.002;4.686;2023-04-30T07:47:17;10.30;;;5.80;;
59336;SDS011;45115;52.002;4.686;2023-04-30T07:49:44;11.20;;;6.47;;
59336;SDS011;45115;52.002;4.686;2023-04-30T07:52:11;11.30;;;6.05;;
59336;SDS011;45115;52.002;4.686;2023-04-30T07:54:37;9.27;;;5.50;;
59336;SDS011;45115;52.002;4.686;2023-04-30T07:57:05;12.45;;;6.40;;
59336;SDS011;45115;52.002;4.686;2023-04-30T07:59:33;11.55;;;6.13;;
59336;SDS011;45115;52.002;4.686;2023-04-30T08:01:59;9.90;;;6.60;;
59336;SDS011;45115;52.002;4.686;2023-04-30T08:04:26;9.07;;;5.80;;
59336;SDS011;45115;52.002;4.686;2023-04-30T08:06:53;13.15;;;6.50;;
59336;SDS011;45115;52.002;4.686;2023-04-30T08:09:19;10.93;;;5.70;;
59336;SDS011;45115;52.002;4.686;2023-04-30T08:11:46;11.00;;;6.10;;
59336;SDS011;45115;52.002;4.686;2023-04-30T08:14:13;9.60;;;5.60;;
59336;SDS011;45115;52.002;4.686;2023-04-30T08:16:41;11.30;;;5.97;;
59336;SDS011;45115;52.002;4.686;2023-04-30T08:19:08;11.02;;;6.30;;
59336;SDS011;45115;52.002;4.686;2023-04-30T08:21:34;12.80;;;6.20;;
59336;SDS011;45115;52.002;4.686;2023-04-30T08:24:01;12.45;;;6.25;;
59336;SDS011;45115;52.002;4.686;2023-04-30T08:26:28;11.07;;;5.57;;
59336;SDS011;45115;52.002;4.686;2023-04-30T08:28:55;12.77;;;6.82;;
59336;SDS011;45115;52.002;4.686;2023-04-30T08:31:21;11.35;;;6.20;;
59336;SDS011;45115;52.002;4.686;2023-04-30T08:33:49;9.77;;;5.95;;
59336;SDS011;45115;52.002;4.686;2023-04-30T08:36:16;10.85;;;6.38;;
59336;SDS011;45115;52.002;4.686;2023-04-30T08:38:43;10.45;;;6.43;;
59336;SDS011;45115;52.002;4.686;2023-04-30T08:41:10;10.68;;;6.50;;
59336;SDS011;45115;52.002;4.686;2023-04-30T08:43:38;11.20;;;6.07;;
59336;SDS011;45115;52.002;4.686;2023-04-30T08:46:05;14.20;;;7.63;;
59336;SDS011;45115;52.002;4.686;2023-04-30T08:48:32;11.35;;;6.30;;
59336;SDS011;45115;52.002;4.686;2023-04-30T08:51:01;11.63;;;6.47;;
59336;SDS011;45115;52.002;4.686;2023-04-30T08:53:29;11.15;;;6.90;;
59336;SDS011;45115;52.002;4.686;2023-04-30T08:55:57;10.90;;;6.50;;
59336;SDS011;45115;52.002;4.686;2023-04-30T08:58:23;11.57;;;6.45;;
59336;SDS011;45115;52.002;4.686;2023-04-30T09:00:50;11.52;;;6.38;;
59336;SDS011;45115;52.002;4.686;2023-04-30T09:03:16;10.80;;;6.28;;
59336;SDS011;45115;52.002;4.686;2023-04-30T09:05:46;11.45;;;6.70;;
59336;SDS011;45115;52.002;4.686;2023-04-30T09:08:16;11.43;;;6.05;;
59336;SDS011;45115;52.002;4.686;2023-04-30T09:10:44;12.18;;;6.22;;
59336;SDS011;45115;52.002;4.686;2023-04-30T09:13:11;9.48;;;5.85;;
59336;SDS011;45115;52.002;4.686;2023-04-30T09:15:38;10.98;;;5.95;;
59336;SDS011;45115;52.002;4.686;2023-04-30T09:18:09;10.75;;;6.20;;
59336;SDS011;45115;52.002;4.686;2023-04-30T09:20:52;11.27;;;6.32;;
59336;SDS011;45115;52.002;4.686;2023-04-30T09:23:21;11.30;;;6.53;;
59336;SDS011;45115;52.002;4.686;2023-04-30T09:25:48;11.63;;;6.43;;
59336;SDS011;45115;52.002;4.686;2023-04-30T09:28:15;12.50;;;7.05;;
59336;SDS011;45115;52.002;4.686;2023-04-30T09:30:41;13.85;;;7.60;;
59336;SDS011;45115;52.002;4.686;2023-04-30T09:33:08;13.05;;;7.40;;
59336;SDS011;45115;52.002;4.686;2023-04-30T09:35:35;13.32;;;7.05;;
59336;SDS011;45115;52.002;4.686;2023-04-30T09:38:03;13.48;;;7.25;;
59336;SDS011;45115;52.002;4.686;2023-04-30T09:40:33;12.77;;;6.93;;
59336;SDS011;45115;52.002;4.686;2023-04-30T09:43:01;12.35;;;7.50;;
59336;SDS011;45115;52.002;4.686;2023-04-30T09:45:37;12.02;;;7.07;;
59336;SDS011;45115;52.002;4.686;2023-04-30T09:48:05;12.95;;;7.10;;
59336;SDS011;45115;52.002;4.686;2023-04-30T09:50:36;12.18;;;6.57;;
59336;SDS011;45115;52.002;4.686;2023-04-30T09:53:04;11.73;;;6.38;;
59336;SDS011;45115;52.002;4.686;2023-04-30T09:55:34;10.52;;;6.28;;
59336;SDS011;45115;52.002;4.686;2023-04-30T09:58:02;10.68;;;6.28;;
59336;SDS011;45115;52.002;4.686;2023-04-30T10:00:31;13.52;;;6.70;;
59336;SDS011;45115;52.002;4.686;2023-04-30T10:03:00;11.57;;;6.75;;
59336;SDS011;45115;52.002;4.686;2023-04-30T10:05:33;10.55;;;6.07;;
59336;SDS011;45115;52.002;4.686;2023-04-30T10:08:03;9.85;;;6.22;;
59336;SDS011;45115;52.002;4.686;2023-04-30T10:10:33;10.10;;;5.50;;
59336;SDS011;45115;52.002;4.686;2023-04-30T10:13:04;10.27;;;5.57;;
59336;SDS011;45115;52.002;4.686;2023-04-30T10:15:37;12.38;;;6.55;;
59336;SDS011;45115;52.002;4.686;2023-04-30T10:18:06;9.65;;;5.57;;
59336;SDS011;45115;52.002;4.686;2023-04-30T10:20:36;9.65;;;5.13;;
59336;SDS011;45115;52.002;4.686;2023-04-30T10:23:05;8.85;;;5.00;;
59336;SDS011;45115;52.002;4.686;2023-04-30T10:25:33;9.13;;;5.55;;
59336;SDS011;45115;52.002;4.686;2023-04-30T10:28:00;12.80;;;6.43;;
59336;SDS011;45115;52.002;4.686;2023-04-30T10:30:27;10.93;;;5.90;;
59336;SDS011;45115;52.002;4.686;2023-04-30T10:32:56;11.38;;;6.60;;
59336;SDS011;45115;52.002;4.686;2023-04-30T10:35:32;11.85;;;6.90;;
59336;SDS011;45115;52.002;4.686;2023-04-30T10:38:06;11.65;;;6.72;;
59336;SDS011;45115;52.002;4.686;2023-04-30T10:40:39;12.13;;;6.72;;
59336;SDS011;45115;52.002;4.686;2023-04-30T10:43:06;11.10;;;6.03;;
59336;SDS011;45115;52.002;4.686;2023-04-30T10:45:36;10.60;;;6.13;;
59336;SDS011;45115;52.002;4.686;2023-04-30T10:48:05;9.98;;;5.82;;
59336;SDS011;45115;52.002;4.686;2023-04-30T10:50:32;11.55;;;5.75;;
59336;SDS011;45115;52.002;4.686;2023-04-30T10:53:05;11.18;;;6.32;;
59336;SDS011;45115;52.002;4.686;2023-04-30T10:55:32;11.65;;;5.72;;
59336;SDS011;45115;52.002;4.686;2023-04-30T10:58:06;10.30;;;6.10;;
59336;SDS011;45115;52.002;4.686;2023-04-30T11:00:50;8.90;;;5.32;;
59336;SDS011;45115;52.002;4.686;2023-04-30T11:03:17;11.15;;;5.55;;
59336;SDS011;45115;52.002;4.686;2023-04-30T11:05:43;9.48;;;5.57;;
59336;SDS011;45115;52.002;4.686;2023-04-30T11:08:10;8.70;;;5.05;;
59336;SDS011;45115;52.002;4.686;2023-04-30T11:10:37;9.27;;;5.10;;
59336;SDS011;45115;52.002;4.686;2023-04-30T11:13:04;12.18;;;5.40;;
59336;SDS011;45115;52.002;4.686;2023-04-30T11:15:38;9.43;;;5.47;;
59336;SDS011;45115;52.002;4.686;2023-04-30T11:18:06;8.20;;;5.05;;
59336;SDS011;45115;52.002;4.686;2023-04-30T11:20:38;7.05;;;4.45;;
59336;SDS011;45115;52.002;4.686;2023-04-30T11:23:09;7.80;;;4.53;;
59336;SDS011;45115;52.002;4.686;2023-04-30T11:25:40;6.47;;;4.38;;
59336;SDS011;45115;52.002;4.686;2023-04-30T11:28:10;6.63;;;4.53;;
59336;SDS011;45115;52.002;4.686;2023-04-30T11:30:39;8.15;;;4.22;;
59336;SDS011;45115;52.002;4.686;2023-04-30T11:33:07;9.00;;;4.57;;
59336;SDS011;45115;52.002;4.686;2023-04-30T11:35:35;8.25;;;5.05;;
59336;SDS011;45115;52.002;4.686;2023-04-30T11:38:03;9.43;;;4.57;;
59336;SDS011;45115;52.002;4.686;2023-04-30T11:40:33;8.75;;;4.68;;
59336;SDS011;45115;52.002;4.686;2023-04-30T11:43:00;6.10;;;4.50;;
59336;SDS011;45115;52.002;4.686;2023-04-30T11:45:29;5.70;;;3.90;;
59336;SDS011;45115;52.002;4.686;2023-04-30T11:47:56;6.60;;;3.97;;
59336;SDS011;45115;52.002;4.686;2023-04-30T11:50:23;7.35;;;4.10;;
59336;SDS011;45115;52.002;4.686;2023-04-30T11:52:53;6.72;;;4.50;;
59336;SDS011;45115;52.002;4.686;2023-04-30T11:55:21;9.90;;;5.30;;
59336;SDS011;45115;52.002;4.686;2023-04-30T11:57:50;8.52;;;5.13;;
59336;SDS011;45115;52.002;4.686;2023-04-30T12:00:20;7.78;;;4.72;;
59336;SDS011;45115;52.002;4.686;2023-04-30T12:02:52;9.07;;;5.25;;
59336;SDS011;45115;52.002;4.686;2023-04-30T12:05:20;8.95;;;4.80;;
59336;SDS011;45115;52.002;4.686;2023-04-30T12:07:48;8.73;;;4.43;;
59336;SDS011;45115;52.002;4.686;2023-04-30T12:10:17;8.50;;;4.10;;
59336;SDS011;45115;52.002;4.686;2023-04-30T12:12:45;6.00;;;4.22;;
59336;SDS011;45115;52.002;4.686;2023-04-30T12:15:14;9.45;;;4.57;;
59336;SDS011;45115;52.002;4.686;2023-04-30T12:17:41;5.63;;;3.85;;
59336;SDS011;45115;52.002;4.686;2023-04-30T12:20:11;5.68;;;3.92;;
59336;SDS011;45115;52.002;4.686;2023-04-30T12:22:38;5.63;;;3.65;;
59336;SDS011;45115;52.002;4.686;2023-04-30T12:25:06;7.95;;;4.05;;
59336;SDS011;45115;52.002;4.686;2023-04-30T12:27:38;5.30;;;3.75;;
59336;SDS011;45115;52.002;4.686;2023-04-30T12:30:05;6.03;;;3.58;;
59336;SDS011;45115;52.002;4.686;2023-04-30T12:32:40;5.00;;;3.45;;
59336;SDS011;45115;52.002;4.686;2023-04-30T12:35:14;7.03;;;3.78;;
59336;SDS011;45115;52.002;4.686;2023-04-30T12:37:42;6.63;;;3.20;;
59336;SDS011;45115;52.002;4.686;2023-04-30T12:40:10;7.72;;;4.38;;
59336;SDS011;45115;52.002;4.686;2023-04-30T12:42:38;8.82;;;4.93;;
59336;SDS011;45115;52.002;4.686;2023-04-30T12:45:05;7.18;;;4.30;;
59336;SDS011;45115;52.002;4.686;2023-04-30T12:47:36;8.77;;;3.78;;
59336;SDS011;45115;52.002;4.686;2023-04-30T12:50:06;5.85;;;3.53;;
59336;SDS011;45115;52.002;4.686;2023-04-30T12:52:36;5.75;;;3.63;;
59336;SDS011;45115;52.002;4.686;2023-04-30T12:58:06;4.68;;;3.40;;
59336;SDS011;45115;52.002;4.686;2023-04-30T13:03:19;5.95;;;3.42;;
59336;SDS011;45115;52.002;4.686;2023-04-30T13:05:48;4.72;;;3.40;;
59336;SDS011;45115;52.002;4.686;2023-04-30T13:08:17;7.53;;;3.92;;
59336;SDS011;45115;52.002;4.686;2023-04-30T13:10:45;4.82;;;3.50;;
59336;SDS011;45115;52.002;4.686;2023-04-30T13:13:12;4.45;;;3.08;;
59336;SDS011;45115;52.002;4.686;2023-04-30T13:15:39;4.53;;;3.00;;
59336;SDS011;45115;52.002;4.686;2023-04-30T13:18:07;5.03;;;3.38;;
59336;SDS011;45115;52.002;4.686;2023-04-30T13:20:34;6.00;;;3.80;;
59336;SDS011;45115;52.002;4.686;2023-04-30T13:23:01;6.07;;;4.03;;
59336;SDS011;45115;52.002;4.686;2023-04-30T13:25:29;6.28;;;4.05;;
59336;SDS011;45115;52.002;4.686;2023-04-30T13:27:56;5.80;;;3.42;;
59336;SDS011;45115;52.002;4.686;2023-04-30T13:30:22;4.63;;;2.88;;
59336;SDS011;45115;52.002;4.686;2023-04-30T13:32:49;4.90;;;2.97;;
59336;SDS011;45115;52.002;4.686;2023-04-30T13:35:17;3.20;;;2.63;;
59336;SDS011;45115;52.002;4.686;2023-04-30T13:37:43;5.32;;;3.08;;
59336;SDS011;45115;52.002;4.686;2023-04-30T13:40:12;6.65;;;3.03;;
59336;SDS011;45115;52.002;4.686;2023-04-30T13:42:40;4.65;;;3.30;;
59336;SDS011;45115;52.002;4.686;2023-04-30T13:45:07;5.00;;;3.10;;
59336;SDS011;45115;52.002;4.686;2023-04-30T13:47:35;3.15;;;2.53;;
59336;SDS011;45115;52.002;4.686;2023-04-30T13:50:02;4.22;;;2.85;;
59336;SDS011;45115;52.002;4.686;2023-04-30T13:52:29;2.70;;;2.50;;
59336;SDS011;45115;52.002;4.686;2023-04-30T13:54:56;1.88;;;1.77;;
59336;SDS011;45115;52.002;4.686;2023-04-30T13:57:23;2.47;;;2.20;;
59336;SDS011;45115;52.002;4.686;2023-04-30T13:59:52;2.25;;;2.00;;
59336;SDS011;45115;52.002;4.686;2023-04-30T14:02:19;2.30;;;2.10;;
59336;SDS011;45115;52.002;4.686;2023-04-30T14:04:46;2.35;;;1.60;;
59336;SDS011;45115;52.002;4.686;2023-04-30T14:07:13;1.75;;;1.65;;
59336;SDS011;45115;52.002;4.686;2023-04-30T14:09:39;4.25;;;2.35;;
59336;SDS011;45115;52.002;4.686;2023-04-30T14:12:06;4.63;;;2.75;;
59336;SDS011;45115;52.002;4.686;2023-04-30T14:14:33;2.30;;;1.98;;
59336;SDS011;45115;52.002;4.686;2023-04-30T14:17:01;3.60;;;2.13;;
59336;SDS011;45115;52.002;4.686;2023-04-30T14:19:29;2.35;;;2.10;;
59336;SDS011;45115;52.002;4.686;2023-04-30T14:21:55;10.80;;;4.10;;
59336;SDS011;45115;52.002;4.686;2023-04-30T14:24:22;7.75;;;3.55;;
59336;SDS011;45115;52.002;4.686;2023-04-30T14:26:48;10.73;;;5.80;;
59336;SDS011;45115;52.002;4.686;2023-04-30T14:29:15;3.40;;;2.47;;
59336;SDS011;45115;52.002;4.686;2023-04-30T14:31:43;3.75;;;2.60;;
59336;SDS011;45115;52.002;4.686;2023-04-30T14:34:11;3.55;;;2.30;;
59336;SDS011;45115;52.002;4.686;2023-04-30T14:36:38;2.67;;;2.30;;
59336;SDS011;45115;52.002;4.686;2023-04-30T14:39:05;4.57;;;2.35;;
59336;SDS011;45115;52.002;4.686;2023-04-30T14:41:33;3.08;;;2.25;;
59336;SDS011;45115;52.002;4.686;2023-04-30T14:44:01;2.30;;;2.10;;
59336;SDS011;45115;52.002;4.686;2023-04-30T14:46:28;4.20;;;2.17;;